Time;durP1;ratioP1;P1;durP2;ratioP2;P2;SDS_P1;SDS_P2;PMS_P1;PMS_P2;Temp;Humidity;BMP_temperature;BMP_pressure;BME280_temperature;BME280_humidity;BME280_pressure;Samples;Min_cycle;Max_cycle;Signal;HPM_P1;HPM_P2
2022/04/20 00:01:57;;;;;;;36.35;4.95;;;35.70;8.50;;;;;;5047900;28;20191;-61
2022/04/20 00:04:23;;;;;;;47.05;6.13;;;35.60;8.70;;;;;;5084989;28;20552;-59
2022/04/20 00:06:50;;;;;;;56.40;6.78;;;35.60;8.70;;;;;;5049651;28;20540;-58
2022/04/20 00:09:16;;;;;;;51.22;5.50;;;35.40;8.70;;;;;;5069580;28;20064;-61
2022/04/20 00:11:43;;;;;;;64.50;7.18;;;35.30;8.70;;;;;;5083753;28;20054;-58
2022/04/20 00:14:09;;;;;;;80.00;8.73;;;35.10;8.80;;;;;;5068429;28;20095;-58
2022/04/20 00:16:35;;;;;;;59.05;7.47;;;34.60;9.20;;;;;;5067189;28;20064;-56
2022/04/20 00:19:02;;;;;;;72.35;7.43;;;34.50;9.60;;;;;;5053517;28;20078;-58
2022/04/20 00:21:28;;;;;;;117.85;10.68;;;34.40;9.80;;;;;;5073313;28;20088;-60
2022/04/20 00:23:54;;;;;;;90.60;7.90;;;34.20;9.80;;;;;;5084180;28;20044;-59
2022/04/20 00:26:21;;;;;;;107.40;10.45;;;34.10;10.00;;;;;;5068285;28;20055;-60
2022/04/20 00:28:47;;;;;;;100.50;8.55;;;33.80;10.40;;;;;;5084274;28;20166;-60
2022/04/20 00:31:14;;;;;;;146.52;13.48;;;33.50;10.90;;;;;;5070539;28;20133;-58
2022/04/20 00:33:40;;;;;;;136.20;12.65;;;33.20;11.50;;;;;;5072153;28;20490;-62
2022/04/20 00:36:09;;;;;;;134.82;11.13;;;33.20;12.60;;;;;;5086955;28;20073;-61
2022/04/20 00:38:35;;;;;;;160.90;11.90;;;33.00;12.60;;;;;;5055985;28;20175;-60
2022/04/20 00:41:02;;;;;;;142.40;12.20;;;33.00;12.90;;;;;;5071202;28;20072;-58
2022/04/20 00:43:28;;;;;;;180.25;14.45;;;32.70;12.70;;;;;;5085264;28;20058;-64
2022/04/20 00:45:57;;;;;;;189.27;16.27;;;32.40;13.00;;;;;;5072615;28;21436;-60
2022/04/20 00:48:24;;;;;;;170.57;15.68;;;32.10;13.40;;;;;;5087391;28;20592;-61
2022/04/20 00:50:50;;;;;;;212.27;18.45;;;32.00;13.50;;;;;;5070129;28;20547;-55
2022/04/20 00:53:17;;;;;;;145.70;14.80;;;31.70;13.70;;;;;;5069784;28;20546;-59
2022/04/20 00:55:44;;;;;;;191.88;15.10;;;31.70;14.30;;;;;;5068948;28;20107;-60
2022/04/20 00:58:13;;;;;;;155.80;14.32;;;31.40;14.70;;;;;;5072070;28;20083;-62
2022/04/20 01:00:39;;;;;;;153.38;12.90;;;31.50;14.80;;;;;;5071398;28;20677;-62
2022/04/20 01:03:07;;;;;;;160.32;13.20;;;31.30;14.30;;;;;;5086653;28;20628;-61
2022/04/20 01:05:33;;;;;;;148.30;12.75;;;31.10;14.20;;;;;;5067930;28;20081;-60
2022/04/20 01:07:59;;;;;;;95.35;9.23;;;31.00;13.80;;;;;;5088192;28;20524;-60
2022/04/20 01:10:26;;;;;;;99.70;9.23;;;31.00;13.50;;;;;;5071870;28;20164;-56
2022/04/20 01:12:53;;;;;;;89.43;7.72;;;30.80;12.60;;;;;;5069939;28;20074;-57
2022/04/20 01:15:20;;;;;;;80.20;8.60;;;30.70;12.50;;;;;;5070291;28;20437;-59
2022/04/20 01:17:47;;;;;;;67.03;6.63;;;30.60;12.60;;;;;;5087517;28;20416;-59
2022/04/20 01:20:16;;;;;;;46.45;5.10;;;30.60;12.90;;;;;;5071809;28;20073;-63
2022/04/20 01:22:43;;;;;;;54.13;5.82;;;30.60;13.00;;;;;;5072513;28;20084;-68
2022/04/20 01:25:13;;;;;;;43.38;4.53;;;30.60;13.10;;;;;;5070393;28;20066;-65
2022/04/20 01:27:41;;;;;;;41.20;4.18;;;30.60;13.10;;;;;;5053173;28;20182;-60
2022/04/20 01:30:08;;;;;;;29.98;3.63;;;30.60;13.00;;;;;;5051691;28;20476;-61
2022/04/20 01:32:35;;;;;;;38.53;4.18;;;30.50;13.00;;;;;;5088258;28;20100;-59
2022/04/20 01:35:01;;;;;;;51.03;5.10;;;30.40;13.00;;;;;;5070998;28;20101;-60
2022/04/20 01:37:28;;;;;;;44.40;4.20;;;30.30;12.90;;;;;;5088324;28;20085;-62
2022/04/20 01:39:55;;;;;;;30.58;3.55;;;30.20;12.90;;;;;;5071421;28;20063;-60
2022/04/20 01:42:22;;;;;;;21.27;3.03;;;30.20;13.70;;;;;;5066459;28;20164;-60
2022/04/20 01:44:50;;;;;;;32.55;3.45;;;30.00;13.50;;;;;;5071028;28;20076;-62
2022/04/20 01:47:16;;;;;;;35.42;3.15;;;29.90;13.90;;;;;;5069371;28;20077;-62
2022/04/20 01:49:43;;;;;;;21.50;2.70;;;29.70;14.20;;;;;;5057783;28;20067;-63
2022/04/20 01:52:09;;;;;;;54.72;7.18;;;29.60;14.60;;;;;;5073802;28;20119;-63
2022/04/20 01:54:36;;;;;;;37.08;4.35;;;29.50;14.90;;;;;;5087195;28;20082;-62
2022/04/20 01:57:02;;;;;;;57.75;4.00;;;29.50;15.40;;;;;;5067757;28;20091;-61
2022/04/20 01:59:28;;;;;;;48.10;4.43;;;29.50;15.30;;;;;;5070511;28;20146;-56
2022/04/20 02:04:39;;;;;;;33.67;3.88;;;29.60;15.80;;;;;;5071309;28;20072;-64
2022/04/20 02:07:06;;;;;;;21.38;2.67;;;29.50;14.90;;;;;;5053662;28;20407;-65
2022/04/20 02:09:32;;;;;;;18.60;2.70;;;29.30;15.40;;;;;;5093520;28;20083;-64
2022/04/20 02:11:58;;;;;;;26.63;3.50;;;29.20;16.10;;;;;;5085922;28;20067;-64
2022/04/20 02:14:26;;;;;;;27.58;3.85;;;29.10;15.70;;;;;;5087504;28;20541;-65
2022/04/20 02:16:53;;;;;;;32.75;4.03;;;28.80;16.30;;;;;;5088052;28;20091;-66
2022/04/20 02:19:19;;;;;;;21.55;4.22;;;28.60;16.70;;;;;;5086722;28;20075;-65
2022/04/20 02:21:46;;;;;;;29.70;4.07;;;28.40;16.90;;;;;;5069572;28;20528;-64
2022/04/20 02:24:13;;;;;;;33.05;4.45;;;28.30;17.30;;;;;;5071507;28;20535;-63
2022/04/20 02:26:40;;;;;;;41.70;4.78;;;28.00;17.50;;;;;;5068651;28;20075;-62
2022/04/20 02:29:07;;;;;;;18.40;3.58;;;27.90;17.40;;;;;;5086296;28;20072;-65
2022/04/20 02:31:33;;;;;;;22.33;3.08;;;27.90;17.40;;;;;;5069654;28;20080;-67
2022/04/20 02:34:00;;;;;;;33.40;3.80;;;27.80;17.30;;;;;;5086762;28;20126;-68
2022/04/20 02:36:27;;;;;;;22.38;2.95;;;27.70;17.10;;;;;;5093184;28;20178;-65
2022/04/20 02:38:55;;;;;;;20.35;3.17;;;27.70;17.00;;;;;;5087989;28;20074;-66
2022/04/20 02:41:21;;;;;;;24.48;3.15;;;27.60;17.00;;;;;;5085939;28;20539;-66
2022/04/20 02:43:49;;;;;;;38.72;3.63;;;27.50;17.10;;;;;;5086171;28;20079;-65
2022/04/20 02:46:15;;;;;;;45.95;4.70;;;27.40;17.00;;;;;;5068710;28;20159;-67
2022/04/20 02:48:42;;;;;;;33.75;3.28;;;27.40;17.10;;;;;;5086051;28;20410;-69
2022/04/20 02:51:08;;;;;;;109.20;6.25;;;27.40;17.20;;;;;;5068087;28;20069;-68
2022/04/20 02:53:35;;;;;;;43.17;3.72;;;27.30;17.30;;;;;;5084560;28;20097;-69
2022/04/20 02:56:01;;;;;;;44.78;4.55;;;27.20;17.60;;;;;;5084901;28;20127;-67
2022/04/20 02:58:27;;;;;;;37.70;4.85;;;27.20;18.00;;;;;;5068043;28;20075;-67
2022/04/20 03:00:54;;;;;;;31.95;3.55;;;27.00;18.30;;;;;;5071143;28;20079;-69
2022/04/20 03:03:20;;;;;;;44.47;4.70;;;26.90;18.60;;;;;;5086200;28;20072;-71
2022/04/20 03:05:48;;;;;;;42.70;4.22;;;26.80;18.50;;;;;;5085979;28;20112;-70
2022/04/20 03:08:15;;;;;;;59.97;5.05;;;26.80;18.60;;;;;;5086577;28;20094;-65
2022/04/20 03:10:41;;;;;;;52.08;4.03;;;26.80;18.30;;;;;;5069339;28;20134;-65
2022/04/20 03:13:08;;;;;;;46.33;4.63;;;26.70;18.30;;;;;;5068601;28;20111;-66
2022/04/20 03:15:35;;;;;;;39.03;4.65;;;26.90;18.50;;;;;;5069422;28;20084;-68
2022/04/20 03:18:01;;;;;;;34.92;4.05;;;26.90;18.80;;;;;;5085775;28;20068;-65
2022/04/20 03:20:28;;;;;;;56.80;5.03;;;26.80;19.20;;;;;;5085362;28;20174;-66
2022/04/20 03:22:54;;;;;;;35.58;4.18;;;26.70;19.80;;;;;;5050816;28;20083;-64
2022/04/20 03:25:21;;;;;;;30.00;3.42;;;26.60;20.20;;;;;;5068282;28;20106;-66
2022/04/20 03:27:47;;;;;;;41.72;4.40;;;26.60;20.70;;;;;;5085085;28;20541;-68
2022/04/20 03:30:14;;;;;;;83.63;6.18;;;26.50;20.80;;;;;;5069757;28;20462;-67
2022/04/20 03:32:41;;;;;;;79.13;5.93;;;26.30;20.80;;;;;;5073010;28;20075;-67
2022/04/20 03:35:08;;;;;;;76.20;6.47;;;26.30;21.10;;;;;;5086366;28;20104;-67
2022/04/20 03:37:38;;;;;;;73.47;5.07;;;26.20;21.20;;;;;;5068454;28;20110;-66
2022/04/20 03:40:08;;;;;;;53.65;4.50;;;26.20;21.40;;;;;;5070866;28;20193;-68
2022/04/20 03:42:35;;;;;;;32.40;3.28;;;26.20;21.60;;;;;;5069938;28;20204;-66
2022/04/20 03:45:02;;;;;;;48.60;4.25;;;26.20;21.80;;;;;;5085036;28;20155;-66
2022/04/20 03:47:28;;;;;;;17.40;3.08;;;26.20;22.30;;;;;;5084993;28;20072;-66
2022/04/20 03:49:54;;;;;;;21.45;2.70;;;26.00;22.70;;;;;;5069559;28;20092;-66
2022/04/20 03:52:21;;;;;;;27.00;3.40;;;26.00;22.90;;;;;;5051479;28;20528;-66
2022/04/20 03:54:47;;;;;;;21.05;3.13;;;25.90;23.20;;;;;;5068893;28;20090;-66
2022/04/20 03:57:14;;;;;;;26.30;2.90;;;26.00;23.40;;;;;;5067832;28;20087;-66
2022/04/20 03:59:40;;;;;;;22.67;2.70;;;25.90;23.50;;;;;;5069323;28;20064;-67
2022/04/20 04:02:09;;;;;;;24.92;2.63;;;25.90;23.60;;;;;;5069196;28;20458;-66
2022/04/20 04:04:36;;;;;;;28.92;2.90;;;25.80;23.60;;;;;;5051975;28;20064;-66
2022/04/20 04:07:02;;;;;;;17.00;3.38;;;25.70;23.60;;;;;;5032219;28;20134;-67
2022/04/20 04:09:29;;;;;;;20.55;3.20;;;25.70;23.80;;;;;;5067280;28;20556;-67
2022/04/20 04:11:55;;;;;;;22.17;3.42;;;25.70;24.00;;;;;;5068922;28;20492;-66
2022/04/20 04:14:22;;;;;;;40.90;3.92;;;25.70;23.90;;;;;;5068230;28;20550;-66
2022/04/20 04:16:49;;;;;;;33.90;4.68;;;25.70;23.80;;;;;;5067388;28;20084;-65
2022/04/20 04:19:15;;;;;;;32.97;4.22;;;25.70;23.90;;;;;;5084920;28;20071;-65
2022/04/20 04:21:42;;;;;;;44.15;4.53;;;25.60;24.10;;;;;;5068054;28;20097;-66
2022/04/20 04:24:34;;;;;;;45.45;5.32;;;25.60;24.20;;;;;;5067436;28;20434;-66
2022/04/20 04:26:56;;;;;;;40.17;5.07;;;25.60;23.80;;;;;;5068563;28;20491;-67
2022/04/20 04:29:22;;;;;;;30.75;4.10;;;25.70;23.80;;;;;;5083315;28;20096;-65
2022/04/20 04:31:49;;;;;;;32.47;3.72;;;25.60;23.70;;;;;;5068598;28;20072;-63
2022/04/20 04:34:15;;;;;;;29.65;4.03;;;25.60;23.50;;;;;;5084699;28;20194;-67
2022/04/20 04:36:43;;;;;;;31.20;4.20;;;25.60;23.50;;;;;;5084432;28;20092;-67
2022/04/20 04:39:09;;;;;;;28.08;4.70;;;25.60;23.50;;;;;;5068713;28;20084;-68
2022/04/20 04:41:36;;;;;;;30.05;3.55;;;25.60;23.40;;;;;;5084930;28;20432;-68
2022/04/20 04:44:02;;;;;;;26.98;3.15;;;25.60;23.10;;;;;;5068420;28;20063;-65
2022/04/20 04:49:13;;;;;;;14.85;2.92;;;25.40;23.00;;;;;;5068093;28;20997;-65
2022/04/20 04:51:41;;;;;;;19.42;3.17;;;25.40;22.90;;;;;;5066902;28;20076;-66
2022/04/20 04:54:07;;;;;;;14.35;2.67;;;25.40;22.80;;;;;;5066523;28;20100;-65
2022/04/20 04:56:33;;;;;;;20.05;3.20;;;25.50;22.90;;;;;;5083970;28;20084;-67
2022/04/20 04:59:00;;;;;;;18.83;2.83;;;25.30;22.70;;;;;;5069741;28;20079;-67
2022/04/20 05:01:27;;;;;;;17.98;2.58;;;25.30;22.80;;;;;;5067481;28;20080;-68
2022/04/20 05:03:53;;;;;;;19.30;3.20;;;25.30;22.80;;;;;;5067234;28;20486;-69
2022/04/20 05:06:20;;;;;;;25.98;3.05;;;25.30;22.10;;;;;;5067589;28;20099;-66
2022/04/20 05:08:47;;;;;;;18.58;2.97;;;25.40;21.00;;;;;;5048934;28;20093;-67
2022/04/20 05:11:13;;;;;;;27.83;3.35;;;25.40;20.50;;;;;;5067290;28;20699;-67
2022/04/20 05:13:40;;;;;;;27.13;3.72;;;25.40;20.10;;;;;;5050363;28;20557;-66
2022/04/20 05:16:08;;;;;;;29.25;3.30;;;25.50;19.80;;;;;;5067315;28;20147;-65
2022/04/20 05:18:35;;;;;;;23.10;3.55;;;25.40;19.80;;;;;;5071553;28;20069;-67
2022/04/20 05:21:01;;;;;;;19.08;2.83;;;25.50;20.20;;;;;;5054119;28;20126;-67
2022/04/20 05:23:28;;;;;;;18.00;3.30;;;25.40;20.80;;;;;;5068754;28;20178;-66
2022/04/20 05:25:54;;;;;;;28.38;3.83;;;25.30;21.40;;;;;;5087983;28;20441;-65
2022/04/20 05:28:21;;;;;;;42.80;4.72;;;25.10;23.60;;;;;;5070754;28;20097;-66
2022/04/20 05:30:47;;;;;;;41.45;4.40;;;24.90;24.50;;;;;;5071807;28;20076;-67
2022/04/20 05:33:13;;;;;;;53.72;4.55;;;24.70;24.90;;;;;;5070361;28;20072;-65
2022/04/20 05:35:40;;;;;;;37.50;5.60;;;24.60;25.40;;;;;;5087479;28;20450;-64
2022/04/20 05:43:36;;;;;;;56.38;6.07;;;24.20;26.80;;;;;;5071288;28;20078;-61
2022/04/20 05:46:04;;;;;;;57.42;7.55;;;24.20;27.00;;;;;;5070677;28;20075;-59
2022/04/20 05:48:30;;;;;;;60.25;7.72;;;24.10;27.00;;;;;;5082843;28;20118;-58
2022/04/20 05:50:56;;;;;;;50.78;5.65;;;24.00;27.40;;;;;;5052410;28;20121;-61
2022/04/20 05:53:23;;;;;;;47.90;7.05;;;24.00;27.00;;;;;;5071846;28;20105;-61
2022/04/20 05:55:49;;;;;;;46.22;6.22;;;23.90;26.50;;;;;;5065692;28;20084;-60
2022/04/20 05:58:16;;;;;;;40.65;6.78;;;23.90;26.70;;;;;;5071572;28;20075;-64
2022/04/20 06:00:42;;;;;;;40.13;5.07;;;23.90;27.20;;;;;;5067779;28;20167;-59
2022/04/20 06:03:08;;;;;;;40.60;5.30;;;23.80;27.60;;;;;;5068506;28;20076;-62
2022/04/20 06:05:35;;;;;;;46.45;6.15;;;23.70;27.90;;;;;;5092779;28;20541;-58
2022/04/20 06:08:01;;;;;;;62.17;6.65;;;23.60;28.10;;;;;;5086065;28;20111;-60
2022/04/20 06:10:30;;;;;;;49.78;6.25;;;23.60;28.30;;;;;;5083546;28;20538;-60
2022/04/20 06:12:57;;;;;;;47.65;5.45;;;23.50;28.50;;;;;;5067913;28;20075;-59
2022/04/20 06:15:23;;;;;;;35.17;3.90;;;23.40;28.80;;;;;;5067825;28;20185;-59
2022/04/20 06:17:49;;;;;;;30.90;3.67;;;23.30;29.20;;;;;;5036393;28;20078;-58
2022/04/20 06:20:16;;;;;;;15.90;2.53;;;23.20;29.80;;;;;;5068155;28;20076;-60
2022/04/20 06:22:42;;;;;;;22.48;2.88;;;23.10;30.20;;;;;;5072886;28;20071;-59
2022/04/20 06:25:09;;;;;;;33.35;3.53;;;23.00;30.40;;;;;;5073184;28;20210;-59
2022/04/20 06:27:36;;;;;;;24.70;2.75;;;23.00;30.30;;;;;;5071928;28;20087;-60
2022/04/20 06:30:03;;;;;;;20.63;2.78;;;23.00;30.00;;;;;;5067278;28;20102;-60
2022/04/20 06:32:31;;;;;;;11.68;2.22;;;23.00;30.60;;;;;;5071740;28;20079;-60
2022/04/20 06:34:58;;;;;;;15.93;2.00;;;22.90;31.10;;;;;;5052051;28;20140;-59
2022/04/20 06:37:25;;;;;;;26.90;3.25;;;22.80;30.80;;;;;;5072617;28;20085;-59
2022/04/20 06:39:51;;;;;;;16.45;2.50;;;22.80;30.30;;;;;;5071068;28;20148;-60
2022/04/20 06:42:21;;;;;;;19.02;2.85;;;22.80;30.10;;;;;;5080559;28;20071;-58
2022/04/20 06:44:47;;;;;;;19.02;2.30;;;22.80;30.50;;;;;;5069388;28;20079;-59
2022/04/20 06:47:13;;;;;;;17.10;2.47;;;22.80;30.90;;;;;;5069927;28;20090;-57
2022/04/20 06:49:41;;;;;;;17.55;2.30;;;22.70;31.40;;;;;;5073372;28;20064;-59
2022/04/20 07:00:21;;;;;;;23.27;2.90;;;22.40;32.40;;;;;;5068977;28;20144;-57
2022/04/20 07:02:57;;;;;;;22.02;3.55;;;22.40;32.40;;;;;;5069759;28;20096;-59
2022/04/20 07:05:24;;;;;;;32.28;4.28;;;22.30;32.30;;;;;;5067053;28;20202;-59
2022/04/20 07:07:50;;;;;;;28.67;4.30;;;22.30;32.50;;;;;;5086011;28;20159;-61
2022/04/20 07:10:17;;;;;;;32.45;3.45;;;22.20;32.50;;;;;;5070110;28;20487;-60
2022/04/20 07:12:43;;;;;;;18.92;3.67;;;22.20;32.60;;;;;;5052958;28;20075;-61
2022/04/20 07:15:10;;;;;;;30.13;3.97;;;22.20;33.00;;;;;;5070480;28;20110;-61
2022/04/20 07:17:36;;;;;;;18.92;2.85;;;22.20;33.00;;;;;;5071272;28;20161;-60
2022/04/20 07:20:03;;;;;;;37.30;3.63;;;22.10;33.00;;;;;;5086819;28;20077;-59
2022/04/20 07:22:30;;;;;;;37.60;3.47;;;22.10;33.20;;;;;;5074938;28;20535;-58
2022/04/20 07:24:56;;;;;;;24.30;2.83;;;22.00;33.50;;;;;;5070036;28;20079;-61
2022/04/20 07:27:23;;;;;;;20.02;2.47;;;22.00;33.50;;;;;;5051238;28;20088;-57
2022/04/20 07:29:49;;;;;;;23.85;3.00;;;22.00;33.60;;;;;;5067766;28;20171;-57
2022/04/20 07:32:15;;;;;;;20.58;2.38;;;22.00;33.10;;;;;;5071084;28;20146;-60
2022/04/20 07:34:42;;;;;;;17.15;2.65;;;22.00;32.80;;;;;;5086909;28;20104;-61
2022/04/20 07:37:08;;;;;;;15.02;2.03;;;22.00;32.70;;;;;;5062438;28;20179;-59
2022/04/20 07:39:35;;;;;;;19.25;2.30;;;22.10;32.60;;;;;;5050774;28;20171;-58
2022/04/20 07:42:01;;;;;;;20.17;2.55;;;22.10;32.30;;;;;;5053724;28;20592;-59
2022/04/20 07:44:27;;;;;;;21.67;2.25;;;22.10;31.80;;;;;;5050689;28;20144;-55
2022/04/20 07:46:54;;;;;;;11.68;2.28;;;22.20;32.00;;;;;;5067402;28;20083;-58
2022/04/20 07:52:05;;;;;;;9.63;1.50;;;22.20;32.90;;;;;;5072825;28;20083;-59
2022/04/20 07:54:31;;;;;;;14.98;2.15;;;22.00;34.70;;;;;;5090054;28;20446;-60
2022/04/20 07:56:58;;;;;;;14.40;1.83;;;21.80;36.50;;;;;;5071043;28;20171;-60
2022/04/20 07:59:24;;;;;;;22.88;2.20;;;21.60;37.20;;;;;;5071551;28;20082;-58
2022/04/20 08:01:51;;;;;;;11.27;2.00;;;21.60;37.80;;;;;;5067110;28;20073;-60
2022/04/20 08:04:17;;;;;;;41.25;2.67;;;21.50;38.30;;;;;;5069142;28;20113;-58
2022/04/20 08:06:44;;;;;;;13.80;1.35;;;21.40;38.60;;;;;;5072225;28;20151;-60
2022/04/20 08:09:10;;;;;;;16.10;1.90;;;21.30;39.00;;;;;;5053793;28;20093;-61
2022/04/20 08:11:36;;;;;;;9.77;1.60;;;21.30;39.20;;;;;;5049740;28;20567;-62
2022/04/20 08:14:12;;;;;;;18.65;2.20;;;21.20;39.50;;;;;;5072560;28;20195;-62
2022/04/20 08:16:38;;;;;;;12.25;1.60;;;21.10;39.90;;;;;;5051041;28;20088;-60
2022/04/20 08:19:07;;;;;;;13.48;1.77;;;21.10;39.80;;;;;;5067750;28;20063;-59
2022/04/20 08:21:34;;;;;;;13.75;2.53;;;21.10;39.80;;;;;;5068272;28;20068;-59
2022/04/20 08:24:01;;;;;;;15.10;1.75;;;21.10;39.70;;;;;;5071599;28;20071;-59
2022/04/20 08:26:27;;;;;;;19.83;2.20;;;21.10;39.80;;;;;;5067699;28;20078;-60
2022/04/20 08:28:54;;;;;;;26.98;2.75;;;21.10;39.70;;;;;;5067434;28;20171;-59
2022/04/20 08:31:20;;;;;;;32.30;3.25;;;21.10;39.60;;;;;;5088107;28;20080;-60
2022/04/20 08:33:47;;;;;;;29.20;2.53;;;21.20;39.40;;;;;;5086757;28;20592;-59
2022/04/20 08:36:14;;;;;;;17.42;1.73;;;21.20;39.80;;;;;;5053164;28;20531;-60
2022/04/20 08:38:40;;;;;;;25.42;2.80;;;21.30;38.90;;;;;;5080405;28;20194;-58
2022/04/20 08:41:10;;;;;;;30.85;2.50;;;21.20;38.70;;;;;;5068036;28;20115;-59
2022/04/20 08:43:40;;;;;;;34.20;3.33;;;21.30;38.50;;;;;;5084211;28;20126;-58
2022/04/20 08:46:10;;;;;;;29.40;3.30;;;21.30;38.30;;;;;;5086605;28;20345;-58
2022/04/20 08:48:37;;;;;;;36.05;4.00;;;21.30;38.40;;;;;;5084763;28;20080;-57
2022/04/20 08:51:06;;;;;;;45.13;4.78;;;21.40;38.50;;;;;;5066845;28;20530;-59
2022/04/20 08:53:32;;;;;;;39.00;4.68;;;21.30;38.70;;;;;;5070695;28;20076;-59
2022/04/20 08:58:48;;;;;;;26.15;3.85;;;21.30;39.00;;;;;;5073361;28;20082;-60
2022/04/20 09:01:16;;;;;;;30.73;3.80;;;21.20;39.30;;;;;;5073349;28;20068;-59
2022/04/20 09:03:46;;;;;;;45.83;4.57;;;21.20;39.60;;;;;;5071505;28;20065;-59
2022/04/20 09:06:16;;;;;;;53.15;4.90;;;21.10;39.60;;;;;;5072595;28;20742;-59
2022/04/20 09:08:45;;;;;;;35.17;3.92;;;21.20;39.60;;;;;;5073588;28;20104;-58
2022/04/20 09:11:12;;;;;;;53.80;5.68;;;21.20;39.40;;;;;;5087726;28;20081;-59
2022/04/20 09:13:42;;;;;;;60.40;6.28;;;21.20;39.20;;;;;;5073404;28;20083;-60
2022/04/20 09:16:11;;;;;;;43.88;5.47;;;21.10;39.10;;;;;;5076250;28;20119;-59
2022/04/20 09:18:39;;;;;;;49.67;6.40;;;21.10;38.70;;;;;;5087006;28;20080;-61
2022/04/20 09:21:11;;;;;;;48.83;5.03;;;21.20;38.30;;;;;;5087110;28;20155;-58
2022/04/20 09:23:38;;;;;;;44.78;5.05;;;21.20;37.80;;;;;;5072258;28;20079;-58
2022/04/20 09:26:09;;;;;;;25.42;3.90;;;21.30;37.80;;;;;;5054963;28;20067;-59
2022/04/20 09:28:39;;;;;;;31.85;4.05;;;21.30;37.80;;;;;;5089280;28;20082;-58
2022/04/20 09:31:07;;;;;;;44.75;3.38;;;21.30;37.60;;;;;;5089163;28;20129;-59
2022/04/20 09:33:45;;;;;;;27.20;2.63;;;21.40;37.10;;;;;;5074847;28;20071;-60
2022/04/20 09:36:15;;;;;;;27.15;3.05;;;21.40;36.80;;;;;;5056239;28;20096;-58
2022/04/20 09:39:03;;;;;;;22.10;2.55;;;21.50;36.50;;;;;;5088059;28;20518;-58
2022/04/20 09:41:29;;;;;;;30.88;3.75;;;21.50;36.20;;;;;;5069491;28;21316;-56
2022/04/20 09:44:09;;;;;;;34.30;3.85;;;21.60;36.10;;;;;;5074497;28;20067;-55
2022/04/20 09:49:58;;;;;;;34.22;4.07;;;21.60;36.10;;;;;;5076865;28;20686;-61
2022/04/20 09:52:25;;;;;;;;;;;21.60;35.90;;;;;;5088483;28;20487;-55
2022/04/20 09:54:57;;;;;;;31.70;3.33;;;21.60;35.80;;;;;;5088713;28;20317;-54
2022/04/20 09:57:24;;;;;;;20.83;2.78;;;21.60;35.70;;;;;;5071390;28;20083;-59
2022/04/20 10:00:05;;;;;;;14.93;2.92;;;21.60;35.60;;;;;;5069261;28;20453;-60
2022/04/20 10:02:37;;;;;;;25.15;2.88;;;21.60;35.70;;;;;;5068618;28;20072;-58
2022/04/20 10:05:05;;;;;;;23.38;3.20;;;21.60;35.60;;;;;;5054627;28;20070;-58
2022/04/20 10:07:31;;;;;;;23.83;3.20;;;21.60;36.00;;;;;;5087992;28;20072;-58
2022/04/20 10:09:58;;;;;;;16.02;2.30;;;21.50;36.60;;;;;;5090336;28;20080;-60
2022/04/20 10:12:25;;;;;;;12.50;1.83;;;21.50;36.80;;;;;;5054885;28;20202;-56
2022/04/20 10:17:50;;;;;;;12.57;1.60;;;21.40;36.60;;;;;;5075683;28;20184;-59
2022/04/20 10:20:18;;;;;;;13.75;1.73;;;21.40;36.30;;;;;;5070876;28;20067;-59
2022/04/20 10:22:47;;;;;;;7.40;1.63;;;21.40;36.20;;;;;;5071389;28;20167;-56
2022/04/20 10:25:14;;;;;;;13.85;1.40;;;21.40;36.30;;;;;;5071755;28;20457;-61
2022/04/20 10:28:03;;;;;;;10.45;1.58;;;21.40;36.10;;;;;;5070116;28;20067;-62
2022/04/20 10:31:09;;;;;;;19.27;2.20;;;21.40;35.90;;;;;;5070540;28;20644;-57
2022/04/20 10:33:36;;;;;;;16.25;2.00;;;21.50;35.70;;;;;;5088627;28;20071;-57
2022/04/20 10:36:11;;;;;;;29.40;3.25;;;21.50;35.80;;;;;;5052375;28;20545;-59
2022/04/20 10:38:39;;;;;;;31.45;3.63;;;21.40;36.90;;;;;;5069723;28;20078;-61
2022/04/20 10:41:08;;;;;;;24.67;3.67;;;21.30;37.10;;;;;;5066506;28;20102;-56
2022/04/20 10:43:39;;;;;;;24.73;2.88;;;21.30;36.80;;;;;;5066644;28;20526;-60
2022/04/20 10:46:20;;;;;;;20.35;2.20;;;21.30;36.40;;;;;;5071416;28;20170;-56
2022/04/20 10:48:57;;;;;;;11.40;1.85;;;21.40;35.90;;;;;;5088911;28;20110;-59
2022/04/20 10:51:30;;;;;;;13.52;1.40;;;21.50;35.20;;;;;;5069977;28;20101;-57
2022/04/20 10:54:27;;;;;;;13.48;1.88;;;21.50;34.80;;;;;;5074925;28;20133;-60
2022/04/20 10:56:59;;;;;;;17.50;1.83;;;21.60;34.70;;;;;;5074965;28;20149;-60
2022/04/20 10:59:26;;;;;;;23.13;3.08;;;21.60;34.90;;;;;;5070010;28;20163;-59
2022/04/20 11:02:01;;;;;;;41.40;4.80;;;21.60;35.00;;;;;;5069655;28;20497;-61
2022/04/20 11:04:48;;;;;;;44.35;4.40;;;21.50;35.60;;;;;;5070159;28;20209;-60
2022/04/20 11:07:23;;;;;;;;;;;21.40;36.10;;;;;;5069814;28;20122;-60
2022/04/20 11:10:02;;;;;;;39.78;4.18;;;21.30;36.30;;;;;;5068595;28;21005;-60
2022/04/20 11:21:07;;;;;;;43.63;4.65;;;21.40;34.80;;;;;;5069091;28;20075;-59
2022/04/20 11:23:58;;;;;;;48.03;6.32;;;21.50;35.10;;;;;;5088053;28;20071;-60
2022/04/20 11:26:41;;;;;;;84.68;7.10;;;21.40;35.60;;;;;;5072866;28;20076;-59
2022/04/20 11:29:27;;;;;;;65.63;6.13;;;21.40;36.10;;;;;;5086744;28;20206;-61
2022/04/20 11:32:02;;;;;;;39.58;4.72;;;21.30;36.20;;;;;;5087967;28;20091;-59
2022/04/20 11:34:33;;;;;;;47.38;5.05;;;21.40;36.10;;;;;;5092348;28;20450;-62
2022/04/20 11:37:00;;;;;;;43.22;3.90;;;21.40;36.20;;;;;;5069907;28;20107;-60
2022/04/20 11:39:28;;;;;;;44.63;5.22;;;21.40;36.60;;;;;;5072322;28;20532;-60
2022/04/20 11:41:57;;;;;;;39.78;4.75;;;21.30;37.20;;;;;;5050945;28;20099;-60
2022/04/20 11:44:31;;;;;;;50.85;4.38;;;21.30;37.30;;;;;;5080521;28;20098;-63
2022/04/20 11:47:03;;;;;;;41.00;5.20;;;21.20;37.30;;;;;;5069250;28;20084;-59
2022/04/20 11:49:42;;;;;;;72.55;5.93;;;21.20;37.40;;;;;;5052436;28;20518;-61
2022/04/20 11:52:14;;;;;;;57.33;5.72;;;21.20;37.40;;;;;;5081558;28;20856;-60
2022/04/20 11:54:48;;;;;;;57.65;5.15;;;21.20;37.60;;;;;;5050198;28;20080;-58
2022/04/20 11:57:16;;;;;;;33.05;3.95;;;21.20;37.40;;;;;;5084348;28;20147;-56
2022/04/20 11:59:50;;;;;;;36.17;3.22;;;21.30;37.20;;;;;;5083540;28;20071;-60
2022/04/20 12:02:19;;;;;;;13.60;2.03;;;21.30;36.70;;;;;;5069261;28;20143;-59
2022/04/20 12:04:46;;;;;;;19.00;2.03;;;21.40;36.30;;;;;;5071182;28;20068;-61
2022/04/20 12:07:13;;;;;;;26.25;2.72;;;21.50;36.00;;;;;;5069583;28;20075;-57
2022/04/20 12:09:42;;;;;;;38.03;3.42;;;21.50;35.90;;;;;;5085148;28;20083;-59
2022/04/20 12:12:12;;;;;;;44.38;4.18;;;21.50;36.20;;;;;;5051774;28;20072;-59
2022/04/20 12:14:41;;;;;;;42.53;5.03;;;21.40;36.70;;;;;;5065327;28;20091;-60
2022/04/20 12:17:13;;;;;;;32.35;3.03;;;21.30;36.90;;;;;;5047958;28;20090;-58
2022/04/20 12:19:41;;;;;;;42.70;3.60;;;21.20;37.10;;;;;;5067314;28;20092;-59
2022/04/20 12:22:16;;;;;;;30.73;4.03;;;21.10;37.30;;;;;;5034205;28;20085;-58
2022/04/20 12:24:44;;;;;;;38.30;5.35;;;21.00;37.50;;;;;;5050217;28;20521;-61
2022/04/20 12:27:24;;;;;;;37.53;4.68;;;21.00;37.60;;;;;;5067447;28;20134;-59
2022/04/20 12:29:54;;;;;;;35.85;4.18;;;21.00;37.50;;;;;;5072532;28;20136;-60
2022/04/20 12:32:25;;;;;;;35.20;3.42;;;21.00;37.50;;;;;;5072358;28;20073;-59
2022/04/20 12:35:01;;;;;;;42.55;3.88;;;21.00;37.80;;;;;;5078483;28;20112;-59
2022/04/20 12:37:33;;;;;;;51.03;4.50;;;20.90;38.10;;;;;;5071254;28;20096;-59
2022/04/20 12:40:22;;;;;;;44.58;3.50;;;20.90;38.40;;;;;;5072788;28;20544;-58
2022/04/20 12:43:07;;;;;;;42.67;4.20;;;20.90;38.80;;;;;;5073812;28;20154;-59
2022/04/20 12:45:34;;;;;;;44.72;3.55;;;20.80;38.80;;;;;;5072115;28;20073;-59
2022/04/20 12:48:11;;;;;;;33.97;3.33;;;20.80;38.80;;;;;;5071229;28;20110;-57
2022/04/20 12:50:39;;;;;;;41.05;3.78;;;20.90;38.80;;;;;;5069310;28;20079;-59
2022/04/20 12:53:06;;;;;;;23.98;2.50;;;20.90;38.70;;;;;;5073147;28;20486;-58
2022/04/20 12:55:41;;;;;;;27.08;2.70;;;20.90;38.20;;;;;;5054005;28;20533;-59
2022/04/20 13:03:44;;;;;;;56.03;4.68;;;20.90;37.60;;;;;;5072885;28;20429;-61
2022/04/20 13:06:12;;;;;;;66.22;4.97;;;20.90;37.70;;;;;;5072621;28;20068;-61
2022/04/20 13:08:45;;;;;;;50.83;5.25;;;21.00;37.40;;;;;;5094312;28;20072;-58
2022/04/20 13:11:13;;;;;;;49.63;6.07;;;21.00;37.10;;;;;;5074484;28;20084;-57
2022/04/20 13:13:40;;;;;;;48.42;5.38;;;21.00;36.80;;;;;;5073477;28;20119;-59
2022/04/20 13:16:10;;;;;;;46.05;5.43;;;21.10;37.30;;;;;;5072923;28;20217;-59
2022/04/20 13:18:38;;;;;;;31.67;4.10;;;21.10;37.20;;;;;;5073542;28;20064;-58
2022/04/20 13:21:05;;;;;;;37.15;3.75;;;21.10;37.10;;;;;;5088396;28;20091;-56
2022/04/20 13:23:32;;;;;;;27.73;2.58;;;21.10;36.90;;;;;;5071406;28;20068;-60
2022/04/20 13:28:43;;;;;;;17.38;2.00;;;21.20;36.40;;;;;;5072584;28;20075;-57
2022/04/20 13:31:09;;;;;;;18.77;1.95;;;21.20;36.00;;;;;;5089755;28;20071;-62